This is the latest recevied weather packets stored in our database for station/object N2WH. If no packets are shown the sender has not sent any weather packets the latest 10 day(s).
| Time | Temp. | Humidity | Pressure | Rain* | Wind** | Luminosity | Snow |
|---|---|---|---|---|---|---|---|
| 1777209514 | 6.67° C | 90% | 1020 hPa | 0 mm | - | 184 W/m² | - |
| 1777209210 | 6.67° C | 91% | 1019.8 hPa | 0 mm | - | 180 W/m² | - |
| 1777208907 | 6.67° C | 92% | 1020.1 hPa | 0 mm | - | 150 W/m² | - |
| 1777208603 | 6.11° C | 94% | 1020.3 hPa | 0 mm | - | 114 W/m² | - |
| 1777208299 | 6.11° C | 96% | 1020.1 hPa | 0 mm | - | 119 W/m² | - |
| 1777207995 | 6.11° C | 97% | 1020.1 hPa | 0 mm | - | 108 W/m² | - |
| 1777207691 | 6.11° C | 98% | 1020.3 hPa | 0 mm | - | 101 W/m² | - |
| 1777207386 | 5.56° C | 98% | 1019.9 hPa | 0 mm | - | 124 W/m² | - |
| 1777207079 | 5.56° C | 99% | 1020.1 hPa | 0 mm | - | 105 W/m² | - |
| 1777206776 | 5.56° C | 99% | 1020.2 hPa | 0 mm | - | 88 W/m² | - |
| 1777206470 | 5.56° C | 99% | 1020.2 hPa | 0 mm | - | 78 W/m² | - |
| 1777206165 | 5.56° C | 99% | 1020 hPa | 0 mm | - | 53 W/m² | - |
| 1777205862 | 5.56° C | 99% | 1020 hPa | 0 mm | - | 41 W/m² | - |
| 1777205558 | 5° C | 99% | 1019.9 hPa | 0 mm | - | 49 W/m² | - |
| 1777205255 | 5° C | 99% | 1019.7 hPa | 0 mm | - | 54 W/m² | - |
| 1777204951 | 5° C | 99% | 1019.8 hPa | 0 mm | - | 62 W/m² | - |
| 1777204646 | 5° C | 99% | 1019.5 hPa | 0 mm | - | 60 W/m² | - |
| 1777204342 | 5° C | 99% | 1019.4 hPa | 0 mm | - | 49 W/m² | - |
| 1777204039 | 5° C | 99% | 1019.5 hPa | 0 mm | - | 43 W/m² | - |
| 1777203739 | 5° C | 99% | 1019.4 hPa | 0 mm | - | 39 W/m² | - |
| 1777203434 | 5° C | 99% | 1019.4 hPa | 0 mm | - | 33 W/m² | - |
| 1777203130 | 5° C | 99% | 1019.4 hPa | 0 mm | - | 26 W/m² | - |
| 1777202827 | 5° C | 99% | 1019.3 hPa | 0 mm | - | 24 W/m² | - |
| 1777202526 | 5° C | 99% | 1019.4 hPa | 0 mm | - | 22 W/m² | - |
| 1777202221 | 5° C | 99% | 1019.2 hPa | 0 mm | - | 19 W/m² | - |
* Rain latest hour (hover to see other rain measurements)
** Current wind speed in m/s (hover to see current wind gust speed)